createdAt,value
2019-05-16T00:00:32.087Z,0.20
2019-05-16T00:03:32.072Z,0.20
2019-05-16T00:06:32.054Z,0.10
2019-05-16T00:09:31.988Z,0.10
2019-05-16T00:12:31.978Z,0.40
2019-05-16T00:15:31.923Z,0.10
2019-05-16T00:18:31.900Z,0.20
2019-05-16T00:21:31.848Z,0.10
2019-05-16T00:24:31.851Z,0.10
2019-05-16T00:27:31.820Z,0.10
2019-05-16T00:30:31.756Z,0.10
2019-05-16T00:33:31.769Z,0.20
2019-05-16T00:36:31.686Z,0.10
2019-05-16T00:39:31.688Z,0.50
2019-05-16T00:42:31.623Z,0.20
2019-05-16T00:45:31.607Z,0.10
2019-05-16T00:48:31.586Z,0.10
2019-05-16T00:51:31.523Z,0.20
2019-05-16T00:54:31.508Z,0.10
2019-05-16T00:57:31.459Z,0.10
2019-05-16T01:00:31.437Z,0.10
2019-05-16T01:03:31.387Z,0.10
2019-05-16T01:06:31.381Z,0.10
2019-05-16T01:09:31.355Z,0.20
2019-05-16T01:12:31.290Z,0.20
2019-05-16T01:15:31.281Z,0.40
2019-05-16T01:18:31.221Z,0.10
2019-05-16T01:21:31.209Z,0.50
2019-05-16T01:24:31.162Z,0.50
2019-05-16T01:27:31.139Z,0.10
2019-05-16T01:30:31.123Z,0.10
2019-05-16T01:33:31.053Z,0.30
2019-05-16T01:36:36.772Z,0.10
2019-05-16T01:39:31.995Z,0.50
2019-05-16T01:42:30.973Z,0.20
2019-05-16T01:45:30.924Z,0.40
2019-05-16T01:48:30.912Z,0.10
2019-05-16T01:51:30.870Z,0.10
2019-05-16T01:54:30.845Z,0.10
2019-05-16T01:57:30.809Z,0.10
2019-05-16T02:00:37.151Z,0.50
2019-05-16T02:03:31.751Z,0.10
2019-05-16T02:06:30.698Z,0.20
2019-05-16T02:09:30.680Z,0.10
2019-05-16T02:12:30.627Z,0.20
2019-05-16T02:15:30.613Z,0.10
2019-05-16T02:18:30.561Z,0.20
2019-05-16T02:21:30.549Z,0.20
2019-05-16T02:24:30.516Z,0.20
2019-05-16T02:27:30.479Z,0.10
2019-05-16T02:30:31.531Z,0.20
2019-05-16T02:33:31.679Z,0.10
2019-05-16T02:36:31.377Z,0.20
2019-05-16T02:39:30.793Z,0.00
2019-05-16T02:42:31.218Z,0.10
2019-05-16T02:45:32.488Z,0.00
2019-05-16T02:48:31.808Z,0.20
2019-05-16T02:51:31.666Z,0.20
2019-05-16T02:54:31.571Z,0.20
2019-05-16T02:57:31.724Z,0.00
2019-05-16T03:00:30.921Z,0.40
2019-05-16T03:03:31.651Z,0.20
2019-05-16T03:06:32.120Z,0.20
2019-05-16T03:09:30.548Z,0.20
2019-05-16T03:12:31.023Z,0.10
2019-05-16T03:15:31.006Z,0.20
2019-05-16T03:18:31.019Z,0.10
2019-05-16T03:21:30.817Z,0.10
2019-05-16T03:24:30.975Z,0.50
2019-05-16T03:27:30.576Z,0.30
2019-05-16T03:30:35.054Z,0.10
2019-05-16T03:33:35.197Z,0.10
2019-05-16T03:36:34.576Z,0.10
2019-05-16T03:39:31.355Z,0.20
2019-05-16T03:42:31.094Z,0.00
2019-05-16T03:45:31.920Z,0.00
2019-05-16T03:48:31.506Z,0.30
2019-05-16T03:51:30.909Z,0.60
2019-05-16T03:54:31.381Z,0.40
2019-05-16T03:57:30.712Z,0.30
2019-05-16T04:00:31.638Z,0.10
2019-05-16T04:03:32.974Z,0.10
2019-05-16T04:06:31.154Z,0.40
2019-05-16T04:09:31.500Z,0.40
2019-05-16T04:12:30.867Z,0.00
2019-05-16T04:15:31.124Z,0.20
2019-05-16T04:18:31.869Z,0.10
2019-05-16T04:21:32.249Z,0.40
2019-05-16T04:24:31.681Z,0.00
2019-05-16T04:27:30.934Z,0.10
2019-05-16T04:30:31.274Z,0.10
2019-05-16T04:33:30.942Z,0.10
2019-05-16T04:36:29.062Z,0.20
2019-05-16T04:39:31.922Z,0.10
2019-05-16T04:42:31.116Z,0.40
2019-05-16T04:45:31.694Z,0.10
2019-05-16T04:48:31.017Z,0.30
2019-05-16T04:51:30.681Z,0.30
2019-05-16T04:54:30.788Z,0.10
2019-05-16T04:57:31.322Z,0.60
2019-05-16T05:00:31.886Z,0.30
2019-05-16T05:03:31.562Z,0.20
2019-05-16T05:06:31.268Z,0.20
2019-05-16T05:09:31.505Z,0.30
2019-05-16T05:12:31.340Z,0.40
2019-05-16T05:15:30.606Z,0.30
2019-05-16T05:18:30.294Z,0.30
2019-05-16T05:21:31.206Z,0.20
2019-05-16T05:24:30.246Z,0.30
2019-05-16T05:27:30.264Z,0.10
2019-05-16T05:30:30.325Z,0.20
2019-05-16T05:33:30.199Z,0.40
2019-05-16T05:36:30.074Z,0.30
2019-05-16T05:39:30.322Z,0.50
2019-05-16T05:42:30.573Z,0.30
2019-05-16T05:45:30.503Z,0.10
2019-05-16T05:48:30.704Z,0.40
2019-05-16T05:51:30.094Z,0.40
2019-05-16T05:54:30.672Z,0.30
2019-05-16T05:57:30.053Z,0.30
2019-05-16T06:00:30.335Z,0.10
2019-05-16T06:03:32.375Z,0.20
2019-05-16T06:06:30.348Z,0.10
2019-05-16T06:09:30.107Z,0.40
2019-05-16T06:12:30.317Z,0.10
2019-05-16T06:15:27.961Z,0.40
2019-05-16T06:18:30.290Z,0.20
2019-05-16T06:21:33.110Z,0.80
2019-05-16T06:24:30.518Z,0.10
2019-05-16T06:27:30.159Z,0.10
2019-05-16T06:30:30.214Z,0.40
2019-05-16T06:33:30.337Z,0.10
2019-05-16T06:36:27.747Z,0.40
2019-05-16T06:39:39.195Z,0.20
2019-05-16T06:42:29.928Z,0.40
2019-05-16T06:45:27.637Z,0.30
2019-05-16T06:48:30.167Z,0.30
2019-05-16T06:51:27.566Z,0.10
2019-05-16T06:54:29.734Z,0.30
2019-05-16T06:57:30.015Z,0.10
2019-05-16T07:00:29.889Z,0.30
2019-05-16T07:03:27.450Z,0.10
2019-05-16T07:06:48.406Z,0.10
2019-05-16T07:09:30.116Z,0.40
2019-05-16T07:12:27.356Z,0.30
2019-05-16T07:15:27.313Z,0.50
2019-05-16T07:18:27.287Z,0.10
2019-05-16T07:21:27.252Z,0.10
2019-05-16T07:24:27.231Z,0.10
2019-05-16T07:27:27.221Z,0.30
2019-05-16T07:30:27.143Z,0.40
2019-05-16T07:33:27.129Z,0.10
2019-05-16T07:36:27.091Z,0.40
2019-05-16T07:39:27.066Z,0.60
2019-05-16T07:42:27.053Z,0.20
2019-05-16T07:45:27.034Z,0.20
2019-05-16T07:48:26.964Z,0.10
2019-05-16T07:51:26.956Z,0.10
2019-05-16T07:54:26.883Z,0.20
2019-05-16T07:57:26.896Z,0.20
2019-05-16T08:00:45.753Z,0.20
2019-05-16T08:03:30.184Z,0.60
2019-05-16T08:06:26.753Z,0.10
2019-05-16T08:09:26.751Z,0.10
2019-05-16T08:12:27.221Z,0.30
2019-05-16T08:15:26.654Z,0.10
2019-05-16T08:18:26.648Z,0.30
2019-05-16T08:21:27.729Z,0.40
2019-05-16T08:24:26.594Z,0.60
2019-05-16T08:27:26.526Z,0.30
2019-05-16T08:30:26.516Z,0.40
2019-05-16T08:33:26.490Z,0.30
2019-05-16T08:36:26.432Z,0.50
2019-05-16T08:39:26.418Z,0.30
2019-05-16T08:42:26.425Z,0.10
2019-05-16T08:45:26.400Z,0.10
2019-05-16T08:48:26.321Z,0.10
2019-05-16T08:51:26.300Z,0.40
2019-05-16T08:54:26.257Z,0.20
2019-05-16T08:57:27.758Z,0.30
2019-05-16T09:00:27.230Z,0.30
2019-05-16T09:03:26.152Z,0.10
2019-05-16T09:06:26.127Z,0.50
2019-05-16T09:09:41.034Z,0.20
2019-05-16T09:12:27.901Z,0.10
2019-05-16T09:15:27.411Z,0.20
2019-05-16T09:18:28.918Z,0.30
2019-05-16T09:21:27.606Z,0.40
2019-05-16T09:24:27.237Z,0.10
2019-05-16T09:27:27.336Z,0.20
2019-05-16T09:30:27.479Z,0.20
2019-05-16T09:33:26.993Z,0.10
2019-05-16T09:36:28.055Z,0.50
2019-05-16T09:39:27.755Z,0.50
2019-05-16T09:42:32.778Z,0.20
2019-05-16T09:45:27.230Z,0.20
2019-05-16T09:48:28.054Z,0.10
2019-05-16T09:51:27.180Z,0.60
2019-05-16T09:54:27.338Z,0.10
2019-05-16T09:57:27.778Z,0.30
2019-05-16T10:00:26.962Z,0.50
2019-05-16T10:03:27.102Z,0.20
2019-05-16T10:06:27.587Z,0.20
2019-05-16T10:09:40.288Z,0.30
2019-05-16T10:12:26.404Z,0.30
2019-05-16T10:15:26.956Z,0.20
2019-05-16T10:18:27.655Z,0.40
2019-05-16T10:21:27.163Z,0.30
2019-05-16T10:24:26.890Z,0.20
2019-05-16T10:27:26.480Z,0.30
2019-05-16T10:30:26.960Z,0.90
2019-05-16T10:33:27.536Z,0.70
2019-05-16T10:36:27.938Z,0.30
2019-05-16T10:39:26.782Z,0.10
2019-05-16T10:42:28.940Z,0.20
2019-05-16T10:45:27.158Z,0.20
2019-05-16T10:48:26.990Z,0.20
2019-05-16T10:51:26.923Z,0.40
2019-05-16T10:54:27.404Z,0.10
2019-05-16T10:57:29.392Z,0.20
2019-05-16T11:00:57.235Z,0.10
2019-05-16T11:03:27.680Z,0.10
2019-05-16T11:06:28.836Z,0.20
2019-05-16T11:09:24.793Z,0.30
2019-05-16T11:12:43.195Z,0.10
2019-05-16T11:15:27.801Z,0.20
2019-05-16T11:18:26.907Z,0.30
2019-05-16T11:21:26.721Z,0.20
2019-05-16T11:24:28.989Z,0.30
2019-05-16T11:27:24.582Z,0.40
2019-05-16T11:30:24.657Z,0.40
2019-05-16T11:33:24.527Z,0.10
2019-05-16T11:36:26.645Z,0.50
2019-05-16T11:39:24.491Z,0.20
2019-05-16T11:42:24.414Z,0.30
2019-05-16T11:45:24.389Z,0.80
2019-05-16T11:48:25.338Z,0.50
2019-05-16T11:51:26.610Z,0.20
2019-05-16T11:54:26.464Z,0.30
2019-05-16T11:57:24.271Z,0.30
2019-05-16T12:00:24.272Z,0.50
2019-05-16T12:03:24.184Z,0.20
2019-05-16T12:06:26.625Z,0.40
2019-05-16T12:09:24.133Z,0.20
2019-05-16T12:12:24.109Z,0.40
2019-05-16T12:15:24.060Z,0.40
2019-05-16T12:18:26.384Z,0.50
2019-05-16T12:21:24.002Z,0.30
2019-05-16T12:24:33.038Z,0.20
2019-05-16T12:27:31.800Z,0.50
2019-05-16T12:30:24.904Z,0.20
2019-05-16T12:33:23.889Z,0.50
2019-05-16T12:36:26.328Z,0.90
2019-05-16T12:39:26.673Z,0.60
2019-05-16T12:42:23.786Z,0.50
2019-05-16T12:45:23.729Z,0.20
2019-05-16T12:48:23.719Z,0.50
2019-05-16T12:51:23.663Z,0.40
2019-05-16T12:54:23.665Z,0.90
2019-05-16T12:57:27.696Z,0.70
2019-05-16T13:00:24.601Z,0.40
2019-05-16T13:03:23.542Z,0.60
2019-05-16T13:06:23.524Z,0.20
2019-05-16T13:09:23.490Z,0.30
2019-05-16T13:12:23.459Z,0.20
2019-05-16T13:15:23.439Z,0.50
2019-05-16T13:18:23.400Z,0.20
2019-05-16T13:21:23.353Z,0.60
2019-05-16T13:24:23.307Z,0.60
2019-05-16T13:27:23.503Z,0.70
2019-05-16T13:30:23.264Z,0.60
2019-05-16T13:33:23.260Z,0.80
2019-05-16T13:36:23.219Z,0.60
2019-05-16T13:39:23.150Z,0.20
2019-05-16T13:42:23.143Z,0.40
2019-05-16T13:45:23.086Z,0.60
2019-05-16T13:48:23.070Z,0.60
2019-05-16T13:51:23.049Z,0.40
2019-05-16T13:54:22.985Z,0.30
2019-05-16T13:57:22.962Z,0.60
2019-05-16T14:00:22.925Z,0.10
2019-05-16T14:03:22.905Z,0.40
2019-05-16T14:06:22.858Z,0.40
2019-05-16T14:09:22.836Z,0.20
2019-05-16T14:12:22.812Z,0.30
2019-05-16T14:15:22.750Z,0.20
2019-05-16T14:18:22.731Z,0.30
2019-05-16T14:21:22.692Z,0.40
2019-05-16T14:24:22.672Z,0.10
2019-05-16T14:27:22.615Z,0.30
2019-05-16T14:30:22.612Z,0.30
2019-05-16T14:33:22.551Z,0.40
2019-05-16T14:36:22.535Z,0.80
2019-05-16T14:39:22.489Z,0.50
2019-05-16T14:42:22.494Z,0.60
2019-05-16T14:45:22.452Z,0.40
2019-05-16T14:48:22.394Z,0.60
2019-05-16T14:51:22.379Z,0.40
2019-05-16T14:54:22.335Z,0.60
2019-05-16T14:57:22.289Z,0.40
2019-05-16T15:00:22.275Z,0.30
2019-05-16T15:03:22.226Z,0.50
2019-05-16T15:06:22.215Z,0.70
2019-05-16T15:09:22.160Z,0.60
2019-05-16T15:12:22.146Z,0.40
2019-05-16T15:15:24.758Z,0.30
2019-05-16T15:18:23.080Z,0.80
2019-05-16T15:21:22.067Z,0.70
2019-05-16T15:24:21.989Z,0.80
2019-05-16T15:27:21.988Z,0.70
2019-05-16T15:30:21.921Z,0.40
2019-05-16T15:33:21.911Z,0.80
2019-05-16T15:36:21.865Z,0.50
2019-05-16T15:39:21.853Z,0.50
2019-05-16T15:42:27.768Z,0.80
2019-05-16T15:45:38.130Z,0.70
2019-05-16T15:48:22.745Z,0.40
2019-05-16T15:51:21.687Z,0.80
2019-05-16T15:54:21.694Z,0.90
2019-05-16T15:57:21.639Z,0.50
2019-05-16T16:00:21.592Z,0.70
2019-05-16T16:03:21.578Z,0.50
2019-05-16T16:06:21.529Z,0.50
2019-05-16T16:09:21.515Z,0.60
2019-05-16T16:12:21.457Z,0.90
2019-05-16T16:15:21.459Z,0.50
2019-05-16T16:18:22.067Z,0.40
2019-05-16T16:21:21.363Z,1.10
2019-05-16T16:24:21.348Z,0.80
2019-05-16T16:27:21.294Z,0.70
2019-05-16T16:30:21.283Z,0.50
2019-05-16T16:33:26.284Z,0.40
2019-05-16T16:36:22.228Z,0.50
2019-05-16T16:39:21.177Z,0.80
2019-05-16T16:42:21.146Z,0.50
2019-05-16T16:45:21.112Z,1.00
2019-05-16T16:48:21.071Z,0.50
2019-05-16T16:51:21.059Z,0.80
2019-05-16T16:54:21.009Z,0.40
2019-05-16T16:57:21.013Z,0.20
2019-05-16T17:00:20.938Z,0.80
2019-05-16T17:03:20.934Z,0.40
2019-05-16T17:06:20.876Z,0.30
2019-05-16T17:09:20.864Z,0.50
2019-05-16T17:12:20.814Z,0.20
2019-05-16T17:15:20.814Z,0.30
2019-05-16T17:18:20.746Z,0.50
2019-05-16T17:21:20.737Z,0.70
2019-05-16T17:24:20.718Z,0.40
2019-05-16T17:27:20.687Z,0.20
2019-05-16T17:30:20.626Z,0.20
2019-05-16T17:33:20.598Z,0.10
2019-05-16T17:36:20.562Z,0.30
2019-05-16T17:39:20.541Z,0.60
2019-05-16T17:42:20.492Z,0.10
2019-05-16T17:45:20.475Z,0.30
2019-05-16T17:48:20.446Z,0.60
2019-05-16T17:51:20.396Z,0.60
2019-05-16T17:54:20.375Z,0.70
2019-05-16T17:57:20.338Z,0.20
2019-05-16T18:00:25.022Z,0.40
2019-05-16T18:03:21.265Z,0.30
2019-05-16T18:06:20.251Z,0.30
2019-05-16T18:09:20.212Z,0.50
2019-05-16T18:12:20.193Z,0.50
2019-05-16T18:15:20.148Z,0.30
2019-05-16T18:18:20.108Z,0.50
2019-05-16T18:21:20.098Z,0.40
2019-05-16T18:24:20.043Z,0.60
2019-05-16T18:27:20.037Z,0.20
2019-05-16T18:30:19.978Z,0.40
2019-05-16T18:33:19.980Z,0.40
2019-05-16T18:36:19.921Z,0.50
2019-05-16T18:39:19.915Z,0.50
2019-05-16T18:42:19.880Z,0.70
2019-05-16T18:45:19.816Z,0.50
2019-05-16T18:48:19.820Z,0.80
2019-05-16T18:51:19.754Z,0.60
2019-05-16T18:54:19.748Z,0.40
2019-05-16T18:57:19.687Z,0.80
2019-05-16T19:00:19.684Z,0.30
2019-05-16T19:03:19.625Z,0.60
2019-05-16T19:06:19.624Z,0.30
2019-05-16T19:09:19.582Z,0.40
2019-05-16T19:12:19.531Z,0.50
2019-05-16T19:15:19.510Z,0.60
2019-05-16T19:18:19.463Z,0.80
2019-05-16T19:21:19.449Z,0.40
2019-05-16T19:24:19.422Z,0.40
2019-05-16T19:27:19.364Z,0.40
2019-05-16T19:30:19.364Z,1.20
2019-05-16T19:33:19.324Z,0.50
2019-05-16T19:36:19.292Z,0.80
2019-05-16T19:39:19.240Z,0.70
2019-05-16T19:42:19.226Z,0.30
2019-05-16T19:45:19.182Z,0.60
2019-05-16T19:48:19.160Z,0.30
2019-05-16T19:51:19.139Z,1.00
2019-05-16T19:54:19.082Z,0.30
2019-05-16T19:57:19.077Z,0.40
2019-05-16T20:00:19.051Z,0.40
2019-05-16T20:03:19.012Z,0.80
2019-05-16T20:06:18.964Z,0.70
2019-05-16T20:09:18.937Z,0.20
2019-05-16T20:12:18.898Z,0.40
2019-05-16T20:15:18.887Z,0.20
2019-05-16T20:18:18.847Z,0.40
2019-05-16T20:21:18.823Z,0.50
2019-05-16T20:24:18.764Z,0.50
2019-05-16T20:27:19.477Z,0.40
2019-05-16T20:30:18.730Z,0.80
2019-05-16T20:33:18.671Z,0.40
2019-05-16T20:36:18.667Z,0.60
2019-05-16T20:39:18.627Z,0.50
2019-05-16T20:42:18.585Z,1.40
2019-05-16T20:45:18.550Z,0.60
2019-05-16T20:48:18.833Z,1.10
2019-05-16T20:51:20.274Z,0.70
2019-05-16T20:54:18.448Z,0.90
2019-05-16T20:57:18.437Z,0.90
2019-05-16T21:00:18.391Z,1.00
2019-05-16T21:03:18.396Z,1.00
2019-05-16T21:06:18.322Z,0.70
2019-05-16T21:09:18.305Z,1.30
2019-05-16T21:12:18.279Z,0.90
2019-05-16T21:15:18.225Z,0.90
2019-05-16T21:18:18.205Z,1.70
2019-05-16T21:21:19.388Z,1.00
2019-05-16T21:24:18.140Z,0.50
2019-05-16T21:27:19.119Z,1.50
2019-05-16T21:30:19.176Z,0.20
2019-05-16T21:33:18.664Z,0.90
2019-05-16T21:36:19.095Z,0.80
2019-05-16T21:39:17.982Z,1.00
2019-05-16T21:42:17.939Z,1.00
2019-05-16T21:45:28.271Z,1.10
2019-05-16T21:48:19.407Z,0.90
2019-05-16T21:51:19.642Z,1.10
2019-05-16T21:54:17.831Z,1.00
2019-05-16T21:57:19.854Z,0.80
2019-05-16T22:00:17.780Z,1.80
2019-05-16T22:03:17.737Z,1.10
2019-05-16T22:06:17.717Z,1.20
2019-05-16T22:09:17.693Z,0.90
2019-05-16T22:12:17.631Z,0.90
2019-05-16T22:15:17.609Z,1.10
2019-05-16T22:18:17.594Z,0.80
2019-05-16T22:21:17.558Z,1.40
2019-05-16T22:24:17.496Z,1.80
2019-05-16T22:27:17.485Z,1.80
2019-05-16T22:30:17.471Z,1.50
2019-05-16T22:33:17.873Z,2.10
2019-05-16T22:36:17.484Z,1.10
2019-05-16T22:39:17.456Z,1.00
2019-05-16T22:42:17.767Z,0.80
2019-05-16T22:45:17.697Z,1.20
2019-05-16T22:48:17.509Z,1.30
2019-05-16T22:51:17.213Z,1.00
2019-05-16T22:54:17.341Z,1.80
2019-05-16T22:57:17.749Z,1.10
2019-05-16T23:00:17.142Z,0.80
2019-05-16T23:03:17.507Z,0.70
2019-05-16T23:06:17.091Z,1.20
2019-05-16T23:09:17.075Z,1.30
2019-05-16T23:12:17.468Z,1.00
2019-05-16T23:15:17.223Z,1.10
2019-05-16T23:18:17.296Z,0.60
2019-05-16T23:21:17.132Z,1.20
2019-05-16T23:24:17.347Z,1.50
2019-05-16T23:27:16.868Z,2.10
2019-05-16T23:30:16.838Z,1.60
2019-05-16T23:33:16.782Z,1.60
2019-05-16T23:36:17.483Z,0.80
2019-05-16T23:39:16.731Z,1.50
2019-05-16T23:42:16.676Z,1.70
2019-05-16T23:45:17.288Z,1.30
2019-05-16T23:48:16.636Z,1.40
2019-05-16T23:51:17.011Z,0.80
2019-05-16T23:54:17.230Z,1.10
2019-05-16T23:57:16.515Z,2.00
